createdAt,value
2019-03-01T12:09:03.792Z,140.62
2019-03-01T12:09:33.924Z,135.00
2019-03-01T12:10:33.946Z,118.12
2019-03-01T12:11:33.901Z,106.88
2019-03-01T12:12:33.938Z,106.88
2019-03-01T12:13:33.891Z,123.75
2019-03-01T12:14:33.984Z,135.00
2019-03-01T12:15:33.866Z,140.62
2019-03-01T12:16:33.881Z,135.00
2019-03-01T12:17:33.836Z,123.75
2019-03-01T12:18:33.820Z,118.12
2019-03-01T12:19:33.811Z,123.75
2019-03-01T12:20:33.811Z,118.12
2019-03-01T12:21:33.794Z,118.12
2019-03-01T12:22:33.789Z,129.38
2019-03-01T12:23:33.765Z,129.38
2019-03-01T12:24:33.757Z,129.38
2019-03-01T12:25:33.744Z,112.50
2019-03-01T12:26:33.774Z,118.12
2019-03-01T12:27:33.737Z,118.12
2019-03-01T12:28:33.726Z,123.75
2019-03-01T12:29:33.760Z,151.88
2019-03-01T12:30:33.690Z,157.50
2019-03-01T12:31:33.675Z,157.50
2019-03-01T12:32:33.665Z,140.62
2019-03-01T12:33:33.655Z,135.00
2019-03-01T12:34:33.646Z,135.00
2019-03-01T12:35:33.652Z,129.38
2019-03-01T12:36:33.621Z,123.75
2019-03-01T12:37:33.618Z,118.12
2019-03-01T12:38:33.598Z,123.75
2019-03-01T12:39:33.606Z,129.38
2019-03-01T12:40:33.587Z,129.38
2019-03-01T12:41:33.588Z,135.00
2019-03-01T12:42:33.553Z,140.62
2019-03-01T12:43:33.542Z,140.62
2019-03-01T12:44:33.565Z,146.25
2019-03-01T12:45:33.536Z,146.25
2019-03-01T12:46:33.524Z,140.62
2019-03-01T12:47:33.495Z,135.00
2019-03-01T12:48:33.493Z,129.38
2019-03-01T12:49:33.504Z,129.38
2019-03-01T12:50:33.508Z,123.75
2019-03-01T12:51:33.465Z,123.75
2019-03-01T12:52:33.452Z,118.12
2019-03-01T12:53:33.439Z,118.12
2019-03-01T12:54:33.433Z,118.12
2019-03-01T12:55:33.411Z,118.12
2019-03-01T12:56:33.395Z,118.12
2019-03-01T12:57:33.402Z,118.12
2019-03-01T12:58:33.377Z,118.12
2019-03-01T12:59:33.373Z,112.50
2019-03-01T13:00:33.354Z,112.50
2019-03-01T13:01:33.342Z,118.12
2019-03-01T13:02:33.361Z,118.12
2019-03-01T13:03:33.345Z,118.12
2019-03-01T13:04:33.317Z,129.38
2019-03-01T13:05:33.303Z,135.00
2019-03-01T13:06:35.409Z,146.25
2019-03-01T13:07:34.290Z,135.00
2019-03-01T13:08:33.270Z,123.75
2019-03-01T13:09:33.271Z,118.12
2019-03-01T13:10:33.245Z,101.25
2019-03-01T13:11:33.234Z,101.25
2019-03-01T13:12:33.249Z,101.25
2019-03-01T13:13:34.606Z,106.88
2019-03-01T13:14:33.199Z,112.50
2019-03-01T13:15:33.245Z,112.50
2019-03-01T13:16:33.177Z,106.88
2019-03-01T13:17:33.717Z,112.50
2019-03-01T13:18:33.158Z,106.88
2019-03-01T13:19:33.146Z,106.88
2019-03-01T13:20:33.852Z,106.88
2019-03-01T13:21:33.137Z,106.88
2019-03-01T13:22:33.117Z,101.25
2019-03-01T13:23:33.101Z,101.25
2019-03-01T13:24:33.089Z,106.88
2019-03-01T13:25:33.099Z,112.50
2019-03-01T13:26:33.084Z,118.12
2019-03-01T13:27:33.062Z,112.50
2019-03-01T13:28:33.064Z,95.62
2019-03-01T13:29:33.035Z,84.38
2019-03-01T13:30:35.814Z,84.38
2019-03-01T13:31:33.033Z,90.00
2019-03-01T13:32:33.001Z,90.00
2019-03-01T13:33:34.844Z,90.00
2019-03-01T13:34:33.002Z,95.62
2019-03-01T13:35:32.973Z,101.25
2019-03-01T13:36:36.081Z,90.00
2019-03-01T13:37:33.946Z,90.00
2019-03-01T13:38:34.052Z,101.25
2019-03-01T13:39:32.952Z,90.00
2019-03-01T13:40:32.915Z,101.25
2019-03-01T13:41:34.032Z,123.75
2019-03-01T13:42:32.894Z,112.50
2019-03-01T13:43:33.352Z,118.12
2019-03-01T13:44:39.478Z,129.38
2019-03-01T13:45:33.877Z,146.25
2019-03-01T13:46:33.545Z,151.88
2019-03-01T13:47:32.846Z,163.12
2019-03-01T13:48:32.847Z,157.50
2019-03-01T13:49:32.828Z,146.25
2019-03-01T13:50:32.828Z,146.25
2019-03-01T13:51:32.795Z,151.88
2019-03-01T13:52:32.798Z,174.38
2019-03-01T13:53:33.289Z,174.38
2019-03-01T13:54:32.784Z,168.75
2019-03-01T13:55:32.753Z,157.50
2019-03-01T13:56:35.862Z,157.50
2019-03-01T13:57:32.736Z,185.62
2019-03-01T13:58:32.716Z,185.62
2019-03-01T13:59:32.709Z,196.88
2019-03-01T14:00:32.695Z,213.75
2019-03-01T14:01:32.687Z,213.75
2019-03-01T14:02:32.683Z,191.25
2019-03-01T14:03:32.676Z,191.25
2019-03-01T14:04:32.656Z,208.12
2019-03-01T14:05:32.638Z,208.12
2019-03-01T14:06:32.634Z,213.75
2019-03-01T14:07:32.617Z,247.50
2019-03-01T14:08:32.619Z,270.00
2019-03-01T14:09:34.386Z,270.00
2019-03-01T14:10:32.581Z,253.12
2019-03-01T14:11:32.594Z,258.75
2019-03-01T14:12:34.128Z,292.50
2019-03-01T14:13:32.555Z,292.50
2019-03-01T14:14:32.542Z,281.25
2019-03-01T14:15:35.084Z,292.50
2019-03-01T14:16:33.524Z,298.12
2019-03-01T14:17:32.507Z,309.38
2019-03-01T14:18:33.419Z,303.75
2019-03-01T14:19:32.505Z,298.12
2019-03-01T14:20:32.491Z,270.00
2019-03-01T14:21:33.067Z,236.25
2019-03-01T14:22:32.450Z,236.25
2019-03-01T14:23:32.453Z,264.38
2019-03-01T14:24:32.439Z,264.38
2019-03-01T14:25:32.431Z,258.75
2019-03-01T14:26:32.430Z,270.00
2019-03-01T14:27:32.409Z,247.50
2019-03-01T14:28:32.385Z,236.25
2019-03-01T14:29:32.379Z,258.75
2019-03-01T14:30:33.476Z,286.88
2019-03-01T14:31:32.354Z,258.75
2019-03-01T14:32:32.362Z,202.50
2019-03-01T14:33:33.179Z,208.12
2019-03-01T14:34:32.348Z,208.12
2019-03-01T14:35:32.312Z,180.00
2019-03-01T14:36:32.299Z,174.38
2019-03-01T14:37:32.291Z,185.62
2019-03-01T14:38:32.291Z,202.50
2019-03-01T14:39:32.264Z,208.12
2019-03-01T14:40:32.260Z,241.88
2019-03-01T14:41:35.044Z,270.00
2019-03-01T14:42:32.245Z,281.25
2019-03-01T14:43:32.222Z,270.00
2019-03-01T14:44:33.853Z,253.12
2019-03-01T14:45:32.200Z,236.25
2019-03-01T14:46:32.192Z,185.62
2019-03-01T14:47:32.753Z,168.75
2019-03-01T14:48:32.166Z,157.50
2019-03-01T14:49:32.163Z,151.88
2019-03-01T14:50:33.661Z,151.88
2019-03-01T14:51:32.179Z,129.38
2019-03-01T14:52:32.126Z,112.50
2019-03-01T14:53:34.707Z,123.75
2019-03-01T14:54:32.111Z,112.50
2019-03-01T14:55:32.090Z,123.75
2019-03-01T14:56:34.890Z,123.75
2019-03-01T14:57:32.107Z,112.50
2019-03-01T14:58:32.056Z,112.50
2019-03-01T14:59:38.014Z,129.38
2019-03-01T15:00:33.033Z,151.88
2019-03-01T15:01:32.026Z,180.00
2019-03-01T15:02:32.030Z,191.25
2019-03-01T15:03:32.015Z,180.00
2019-03-01T15:04:31.992Z,174.38
2019-03-01T15:05:32.145Z,163.12
2019-03-01T15:06:32.040Z,157.50
2019-03-01T15:07:31.993Z,151.88
2019-03-01T15:08:31.964Z,140.62
2019-03-01T15:09:31.953Z,135.00
2019-03-01T15:10:32.739Z,123.75
2019-03-01T15:11:31.917Z,123.75
2019-03-01T15:12:31.904Z,118.12
2019-03-01T15:13:34.704Z,112.50
2019-03-01T15:14:31.888Z,106.88
2019-03-01T15:15:32.437Z,112.50
2019-03-01T15:16:31.879Z,118.12
2019-03-01T15:17:31.849Z,129.38
2019-03-01T15:18:32.378Z,135.00
2019-03-01T15:19:31.827Z,129.38
2019-03-01T15:20:31.814Z,112.50
2019-03-01T15:21:34.011Z,112.50
2019-03-01T15:22:32.791Z,112.50
2019-03-01T15:23:31.787Z,118.12
2019-03-01T15:24:33.304Z,112.50
2019-03-01T15:25:31.814Z,106.88
2019-03-01T15:26:31.789Z,106.88
2019-03-01T15:27:31.735Z,101.25
2019-03-01T15:28:31.725Z,95.62
2019-03-01T15:29:32.184Z,90.00
2019-03-01T15:30:31.704Z,78.75
2019-03-01T15:31:31.706Z,73.12
2019-03-01T15:32:35.235Z,73.12
2019-03-01T15:33:31.668Z,73.12
2019-03-01T15:34:31.719Z,67.50
2019-03-01T15:35:31.646Z,67.50
2019-03-01T15:36:31.651Z,61.88
2019-03-01T15:37:34.935Z,61.88
2019-03-01T15:38:31.633Z,61.88
2019-03-01T15:39:31.622Z,61.88
2019-03-01T15:40:32.608Z,56.25
2019-03-01T15:41:31.584Z,56.25
2019-03-01T15:42:31.588Z,56.25
2019-03-01T15:43:31.566Z,56.25
2019-03-01T15:44:31.549Z,56.25
2019-03-01T15:45:31.537Z,56.25
2019-03-01T15:46:31.565Z,56.25
2019-03-01T15:47:31.522Z,56.25
2019-03-01T15:48:34.542Z,56.25
2019-03-01T15:49:32.495Z,56.25
2019-03-01T15:50:31.481Z,50.62
2019-03-01T15:51:34.727Z,50.62
2019-03-01T15:52:32.476Z,50.62
2019-03-01T15:53:31.453Z,45.00
2019-03-01T15:54:32.448Z,45.00
2019-03-01T15:55:31.427Z,45.00
2019-03-01T15:56:31.461Z,45.00
2019-03-01T15:57:31.435Z,39.38
2019-03-01T15:58:33.219Z,39.38
2019-03-01T15:59:31.403Z,39.38
2019-03-01T16:00:31.378Z,39.38
2019-03-01T16:01:31.359Z,33.75
2019-03-01T16:02:31.368Z,33.75
2019-03-01T16:03:31.336Z,33.75
2019-03-01T16:04:33.661Z,33.75
2019-03-01T16:05:34.309Z,33.75
2019-03-01T16:06:32.303Z,33.75
2019-03-01T16:07:32.326Z,33.75
2019-03-01T16:08:31.282Z,28.12
2019-03-01T16:09:31.295Z,28.12
2019-03-01T16:10:33.001Z,28.12
2019-03-01T16:11:31.252Z,22.50
2019-03-01T16:12:32.229Z,22.50
2019-03-01T16:13:31.234Z,22.50
2019-03-01T16:14:31.243Z,22.50
2019-03-01T16:15:31.366Z,22.50
2019-03-01T16:16:31.929Z,22.50
2019-03-01T16:17:31.187Z,16.88
2019-03-01T16:18:31.173Z,16.88
2019-03-01T16:19:31.168Z,16.88
2019-03-01T16:20:31.175Z,16.88
2019-03-01T16:21:31.143Z,16.88
2019-03-01T16:22:31.142Z,11.25
2019-03-01T16:23:31.152Z,11.25
2019-03-01T16:24:31.110Z,11.25
2019-03-01T16:25:31.101Z,11.25
2019-03-01T16:26:33.595Z,11.25
2019-03-01T16:27:32.094Z,11.25
2019-03-01T16:28:32.182Z,11.25
2019-03-01T16:29:31.062Z,11.25
2019-03-01T16:30:31.046Z,5.62
2019-03-01T16:31:32.057Z,5.62
2019-03-01T16:32:31.059Z,5.62
2019-03-01T16:33:31.037Z,5.62
2019-03-01T16:34:31.004Z,5.62
2019-03-01T16:35:31.005Z,5.62
2019-03-01T16:36:30.981Z,5.62
2019-03-01T16:37:30.970Z,5.62
2019-03-01T16:38:40.421Z,5.62
2019-03-01T16:39:31.972Z,0.00
2019-03-01T16:40:30.941Z,0.00
2019-03-01T16:41:30.923Z,0.00
2019-03-01T16:42:38.219Z,0.00
2019-03-01T16:43:31.963Z,0.00
2019-03-01T16:44:30.892Z,0.00
2019-03-01T16:45:30.903Z,0.00
2019-03-01T16:46:31.473Z,0.00
2019-03-01T16:47:30.858Z,0.00
2019-03-01T16:48:30.905Z,0.00
2019-03-01T16:49:30.840Z,0.00
2019-03-01T16:50:30.826Z,0.00
2019-03-01T16:51:30.815Z,0.00
2019-03-01T16:52:31.215Z,0.00
2019-03-01T16:53:30.819Z,0.00
2019-03-01T16:54:30.788Z,0.00
2019-03-01T16:55:30.774Z,0.00
2019-03-01T16:56:30.763Z,0.00
2019-03-01T16:57:30.996Z,0.00
2019-03-01T16:58:30.756Z,0.00
2019-03-01T16:59:30.769Z,0.00
2019-03-01T17:00:30.728Z,0.00
2019-03-01T17:01:30.817Z,0.00
2019-03-01T17:02:30.698Z,0.00
2019-03-01T17:03:30.741Z,0.00
2019-03-01T17:04:30.675Z,0.00
2019-03-01T17:05:30.705Z,0.00
2019-03-01T17:06:30.652Z,0.00
2019-03-01T17:07:30.643Z,0.00
2019-03-01T17:08:30.637Z,0.00
2019-03-01T17:10:43.211Z,0.00
2019-03-01T17:11:43.227Z,0.00
2019-03-01T17:12:43.172Z,0.00
2019-03-01T17:13:43.159Z,0.00
2019-03-01T17:14:43.170Z,0.00
2019-03-01T17:15:45.492Z,0.00
2019-03-01T17:16:44.149Z,0.00
2019-03-01T17:17:43.137Z,0.00
2019-03-01T17:18:44.716Z,0.00
2019-03-01T17:19:43.097Z,0.00
2019-03-01T17:20:43.088Z,0.00
2019-03-01T17:21:43.094Z,0.00
2019-03-01T17:22:43.079Z,0.00
2019-03-01T17:23:43.078Z,0.00
2019-03-01T17:24:43.037Z,0.00
2019-03-01T17:25:43.030Z,0.00
2019-03-01T17:26:43.030Z,0.00
2019-03-01T17:27:43.464Z,0.00
2019-03-01T17:28:43.004Z,0.00
2019-03-01T17:29:43.021Z,0.00
2019-03-01T17:30:42.974Z,0.00
2019-03-01T17:31:42.968Z,0.00
2019-03-01T17:32:42.977Z,0.00
2019-03-01T17:33:45.169Z,0.00
2019-03-01T17:34:43.928Z,0.00
2019-03-01T17:35:42.919Z,0.00
2019-03-01T17:36:42.909Z,0.00
2019-03-01T17:37:42.899Z,0.00
2019-03-01T17:38:45.870Z,0.00
2019-03-01T17:39:42.887Z,0.00
2019-03-01T17:40:42.865Z,0.00
2019-03-01T17:41:45.876Z,0.00
2019-03-01T17:42:42.841Z,0.00
2019-03-01T17:43:42.829Z,0.00
2019-03-01T17:44:44.548Z,0.00
2019-03-01T17:45:42.827Z,0.00
2019-03-01T17:46:42.799Z,0.00
2019-03-01T17:47:45.437Z,0.00
2019-03-01T17:48:42.778Z,0.00
2019-03-01T17:49:42.770Z,0.00
2019-03-01T17:50:44.850Z,0.00
2019-03-01T17:51:42.765Z,0.00
2019-03-01T17:52:43.929Z,0.00
2019-03-01T17:53:43.116Z,0.00
2019-03-01T17:54:42.709Z,0.00
2019-03-01T17:55:42.700Z,0.00
2019-03-01T17:56:42.690Z,0.00
2019-03-01T17:57:42.718Z,0.00
2019-03-01T17:58:42.670Z,0.00
2019-03-01T17:59:44.688Z,0.00
2019-03-01T18:00:43.650Z,0.00
2019-03-01T18:01:42.650Z,0.00
2019-03-01T18:02:42.663Z,0.00
2019-03-01T18:03:42.666Z,0.00
2019-03-01T18:04:42.603Z,0.00
2019-03-01T18:05:42.595Z,0.00
2019-03-01T18:06:42.593Z,0.00
2019-03-01T18:07:42.631Z,0.00
2019-03-01T18:08:42.564Z,0.00
2019-03-01T18:09:42.549Z,0.00
2019-03-01T18:10:42.540Z,0.00
2019-03-01T18:11:44.532Z,0.00
2019-03-01T18:12:42.518Z,0.00
2019-03-01T18:13:42.529Z,0.00
2019-03-01T18:14:42.494Z,0.00
2019-03-01T18:15:45.050Z,0.00
2019-03-01T18:16:43.479Z,0.00
2019-03-01T18:17:42.460Z,0.00
2019-03-01T18:18:42.641Z,0.00
2019-03-01T18:19:42.455Z,0.00
2019-03-01T18:20:42.453Z,0.00
2019-03-01T18:21:42.415Z,0.00
2019-03-01T18:22:42.403Z,0.00
2019-03-01T18:23:42.392Z,0.00
2019-03-01T18:24:43.478Z,0.00
2019-03-01T18:25:42.390Z,0.00
2019-03-01T18:26:42.361Z,0.00
2019-03-01T18:27:42.348Z,0.00
2019-03-01T18:28:42.623Z,0.00
2019-03-01T18:29:43.328Z,0.00
2019-03-01T18:30:42.318Z,0.00
2019-03-01T18:31:42.308Z,0.00
2019-03-01T18:32:45.245Z,0.00
2019-03-01T18:33:42.750Z,0.00
2019-03-01T18:34:42.287Z,0.00
2019-03-01T18:35:42.285Z,0.00
2019-03-01T18:36:42.289Z,0.00
2019-03-01T18:37:42.243Z,0.00
2019-03-01T18:38:42.230Z,0.00
2019-03-01T18:39:42.336Z,0.00
2019-03-01T18:40:42.208Z,0.00
2019-03-01T18:41:42.239Z,0.00
2019-03-01T18:42:42.188Z,0.00
2019-03-01T18:43:42.177Z,0.00
2019-03-01T18:44:42.183Z,0.00
2019-03-01T18:45:43.184Z,0.00
2019-03-01T18:46:42.151Z,0.00
2019-03-01T18:47:42.145Z,0.00
2019-03-01T18:48:44.045Z,0.00
2019-03-01T18:49:42.123Z,0.00
2019-03-01T18:50:42.102Z,0.00
2019-03-01T18:51:43.290Z,0.00
2019-03-01T18:52:42.099Z,0.00
2019-03-01T18:53:42.068Z,0.00
2019-03-01T18:54:43.070Z,0.00
2019-03-01T18:55:42.045Z,0.00
2019-03-01T18:56:42.037Z,0.00
2019-03-01T18:57:42.023Z,0.00
2019-03-01T18:58:42.011Z,0.00
2019-03-01T18:59:42.017Z,0.00
2019-03-01T19:00:41.992Z,0.00
2019-03-01T19:01:42.924Z,0.00
2019-03-01T19:02:41.978Z,0.00
2019-03-01T19:03:41.971Z,0.00
2019-03-01T19:04:41.948Z,0.00
2019-03-01T19:05:41.938Z,0.00
2019-03-01T19:06:41.968Z,0.00
2019-03-01T19:07:41.921Z,0.00
2019-03-01T19:08:41.903Z,0.00
2019-03-01T19:09:41.893Z,0.00
2019-03-01T19:11:05.684Z,0.00
2019-03-01T19:11:41.871Z,0.00
2019-03-01T19:12:44.868Z,0.00
2019-03-01T19:13:42.852Z,0.00
2019-03-01T19:14:42.745Z,0.00
2019-03-01T19:15:42.641Z,0.00
2019-03-01T19:16:41.838Z,0.00
2019-03-01T19:17:41.809Z,0.00
2019-03-01T19:18:42.254Z,0.00
2019-03-01T19:19:42.190Z,0.00
2019-03-01T19:20:42.492Z,0.00
2019-03-01T19:21:41.759Z,0.00
2019-03-01T19:22:41.753Z,0.00
2019-03-01T19:23:41.737Z,0.00
2019-03-01T19:24:43.251Z,0.00
2019-03-01T19:25:41.740Z,0.00
2019-03-01T19:26:41.705Z,0.00
2019-03-01T19:27:41.694Z,0.00
2019-03-01T19:28:41.686Z,0.00
2019-03-01T19:29:41.674Z,0.00
2019-03-01T19:30:41.658Z,0.00
2019-03-01T19:31:41.672Z,0.00
2019-03-01T19:32:41.651Z,0.00
2019-03-01T19:33:41.800Z,0.00
2019-03-01T19:34:41.670Z,0.00
2019-03-01T19:35:41.616Z,0.00
2019-03-01T19:36:41.596Z,0.00
2019-03-01T19:37:41.604Z,0.00
2019-03-01T19:38:41.580Z,0.00
2019-03-01T19:39:41.567Z,0.00
2019-03-01T19:40:43.468Z,0.00
2019-03-01T19:41:42.539Z,0.00
2019-03-01T19:42:41.552Z,0.00
2019-03-01T19:43:44.727Z,0.00
2019-03-01T19:44:41.510Z,0.00
2019-03-01T19:45:41.556Z,0.00
2019-03-01T19:46:42.350Z,0.00
2019-03-01T19:47:41.565Z,0.00
2019-03-01T19:48:41.483Z,0.00
2019-03-01T19:49:41.484Z,0.00
2019-03-01T19:50:43.432Z,0.00
2019-03-01T19:51:41.432Z,0.00
2019-03-01T19:52:43.476Z,0.00
2019-03-01T19:53:42.410Z,0.00
2019-03-01T19:54:41.420Z,0.00
2019-03-01T19:55:43.994Z,0.00
2019-03-01T19:56:42.379Z,0.00
2019-03-01T19:57:41.364Z,0.00
2019-03-01T19:58:44.070Z,0.00
2019-03-01T19:59:42.388Z,0.00
2019-03-01T20:00:42.647Z,0.00
2019-03-01T20:01:41.326Z,0.00
2019-03-01T20:02:41.339Z,0.00
2019-03-01T20:03:42.601Z,0.00
2019-03-01T20:04:41.300Z,0.00
2019-03-01T20:05:41.317Z,0.00
2019-03-01T20:06:43.435Z,0.00
2019-03-01T20:07:41.265Z,0.00
2019-03-01T20:08:41.254Z,0.00
2019-03-01T20:09:41.266Z,0.00
2019-03-01T20:10:41.250Z,0.00
2019-03-01T20:11:41.220Z,0.00
2019-03-01T20:12:41.855Z,0.00
2019-03-01T20:13:41.918Z,0.00
2019-03-01T20:14:41.682Z,0.00
2019-03-01T20:15:42.781Z,0.00
2019-03-01T20:16:41.189Z,0.00
2019-03-01T20:17:44.359Z,0.00
2019-03-01T20:18:41.811Z,0.00
2019-03-01T20:19:41.137Z,0.00
2019-03-01T20:20:41.121Z,0.00
2019-03-01T20:21:41.327Z,0.00
2019-03-01T20:22:41.123Z,0.00
2019-03-01T20:23:41.087Z,0.00
2019-03-01T20:24:41.272Z,0.00
2019-03-01T20:25:41.078Z,0.00
2019-03-01T20:26:41.053Z,0.00
2019-03-01T20:27:41.050Z,0.00
2019-03-01T20:28:41.654Z,0.00
2019-03-01T20:29:41.218Z,0.00
2019-03-01T20:30:41.008Z,0.00
2019-03-01T20:31:41.552Z,0.00
2019-03-01T20:32:41.019Z,0.00
2019-03-01T20:33:40.975Z,0.00
2019-03-01T20:34:40.981Z,0.00
2019-03-01T20:35:40.949Z,0.00
2019-03-01T20:36:41.837Z,0.00
2019-03-01T20:37:40.945Z,0.00
2019-03-01T20:38:40.915Z,0.00
2019-03-01T20:39:40.910Z,0.00
2019-03-01T20:40:40.944Z,0.00
2019-03-01T20:41:46.139Z,0.00
2019-03-01T20:42:41.873Z,0.00
2019-03-01T20:43:41.836Z,0.00
2019-03-01T20:44:40.853Z,0.00
2019-03-01T20:45:40.841Z,0.00
2019-03-01T20:46:43.965Z,0.00
2019-03-01T20:47:40.823Z,0.00
2019-03-01T20:48:40.807Z,0.00
2019-03-01T20:49:40.797Z,0.00
2019-03-01T20:50:40.791Z,0.00
2019-03-01T20:51:40.777Z,0.00
2019-03-01T20:52:40.790Z,0.00
2019-03-01T20:53:40.754Z,0.00
2019-03-01T20:54:40.747Z,0.00
2019-03-01T20:55:40.730Z,0.00
2019-03-01T20:56:40.771Z,0.00
2019-03-01T20:57:40.737Z,0.00
2019-03-01T20:58:40.697Z,0.00
2019-03-01T20:59:40.689Z,0.00
2019-03-01T21:00:40.675Z,0.00
2019-03-01T21:01:41.663Z,0.00
2019-03-01T21:02:40.653Z,0.00
2019-03-01T21:03:40.669Z,0.00
2019-03-01T21:04:52.990Z,0.00
2019-03-01T21:05:41.621Z,0.00
2019-03-01T21:06:40.778Z,0.00
2019-03-01T21:07:40.598Z,0.00
2019-03-01T21:08:40.588Z,0.00
2019-03-01T21:09:41.287Z,0.00
2019-03-01T21:10:40.564Z,0.00
2019-03-01T21:11:41.695Z,0.00
2019-03-01T21:12:40.593Z,0.00
2019-03-01T21:13:40.530Z,0.00
2019-03-01T21:14:40.519Z,0.00
2019-03-01T21:15:40.529Z,0.00
2019-03-01T21:16:41.486Z,0.00
2019-03-01T21:17:40.510Z,0.00
2019-03-01T21:18:40.481Z,0.00
2019-03-01T21:19:40.860Z,0.00
2019-03-01T21:20:40.461Z,0.00
2019-03-01T21:21:40.469Z,0.00
2019-03-01T21:22:41.017Z,0.00
2019-03-01T21:23:40.449Z,0.00
2019-03-01T21:24:40.410Z,0.00
2019-03-01T21:25:40.843Z,0.00
2019-03-01T21:26:40.388Z,0.00
2019-03-01T21:27:40.384Z,0.00
2019-03-01T21:28:41.868Z,0.00
2019-03-01T21:29:40.382Z,0.00
2019-03-01T21:30:40.365Z,0.00
2019-03-01T21:31:40.333Z,0.00
2019-03-01T21:32:40.499Z,0.00
2019-03-01T21:33:40.317Z,0.00
2019-03-01T21:34:40.310Z,0.00
2019-03-01T21:35:40.320Z,0.00
2019-03-01T21:36:40.280Z,0.00
2019-03-01T21:37:40.270Z,0.00
2019-03-01T21:38:40.256Z,0.00
2019-03-01T21:39:40.246Z,0.00
2019-03-01T21:40:40.288Z,0.00
2019-03-01T21:41:41.467Z,0.00
2019-03-01T21:42:40.212Z,0.00
2019-03-01T21:43:40.201Z,0.00
2019-03-01T21:44:42.685Z,0.00
2019-03-01T21:45:41.215Z,0.00
2019-03-01T21:46:40.167Z,0.00
2019-03-01T21:47:40.157Z,0.00
2019-03-01T21:48:40.153Z,0.00
2019-03-01T21:49:40.139Z,0.00
2019-03-01T21:50:42.486Z,0.00
2019-03-01T21:51:40.141Z,0.00
2019-03-01T21:52:40.664Z,0.00
2019-03-01T21:53:40.719Z,0.00
2019-03-01T21:54:40.079Z,0.00
2019-03-01T21:55:40.071Z,0.00
2019-03-01T21:56:55.585Z,0.00
2019-03-01T21:57:41.065Z,0.00
2019-03-01T21:58:41.898Z,0.00
2019-03-01T21:59:40.042Z,0.00
2019-03-01T22:00:40.017Z,0.00
2019-03-01T22:01:41.413Z,0.00
2019-03-01T22:02:39.994Z,0.00
2019-03-01T22:03:40.717Z,0.00
2019-03-01T22:04:40.106Z,0.00
2019-03-01T22:05:39.960Z,0.00
2019-03-01T22:06:40.671Z,0.00
2019-03-01T22:07:39.940Z,0.00
2019-03-01T22:08:39.925Z,0.00
2019-03-01T22:09:39.913Z,0.00
2019-03-01T22:10:39.929Z,0.00
2019-03-01T22:11:40.667Z,0.00
2019-03-01T22:12:39.884Z,0.00
2019-03-01T22:13:39.876Z,0.00
2019-03-01T22:14:39.864Z,0.00
2019-03-01T22:15:39.849Z,0.00
2019-03-01T22:16:39.884Z,0.00
2019-03-01T22:17:39.828Z,0.00
2019-03-01T22:18:39.815Z,0.00
2019-03-01T22:19:40.666Z,0.00
2019-03-01T22:20:41.524Z,0.00
2019-03-01T22:21:39.784Z,0.00
2019-03-01T22:22:39.806Z,0.00
2019-03-01T22:23:39.770Z,0.00
2019-03-01T22:24:39.758Z,0.00
2019-03-01T22:25:39.748Z,0.00
2019-03-01T22:26:39.734Z,0.00
2019-03-01T22:27:39.765Z,0.00
2019-03-01T22:28:39.712Z,0.00
2019-03-01T22:29:39.733Z,0.00
2019-03-01T22:30:39.694Z,0.00
2019-03-01T22:31:39.813Z,0.00
2019-03-01T22:32:42.293Z,0.00
2019-03-01T22:33:40.678Z,0.00
2019-03-01T22:34:39.644Z,0.00
2019-03-01T22:35:40.511Z,0.00
2019-03-01T22:36:39.629Z,0.00
2019-03-01T22:37:39.608Z,0.00
2019-03-01T22:38:41.476Z,0.00
2019-03-01T22:39:39.682Z,0.00
2019-03-01T22:40:39.623Z,0.00
2019-03-01T22:41:40.436Z,0.00
2019-03-01T22:42:39.603Z,0.00
2019-03-01T22:43:40.297Z,0.00
2019-03-01T22:44:39.551Z,0.00
2019-03-01T22:45:39.527Z,0.00
2019-03-01T22:46:39.560Z,0.00
2019-03-01T22:47:39.533Z,0.00
2019-03-01T22:48:46.860Z,0.00
2019-03-01T22:49:40.492Z,0.00
2019-03-01T22:50:42.332Z,0.00
2019-03-01T22:51:39.471Z,0.00
2019-03-01T22:52:39.463Z,0.00
2019-03-01T22:53:42.138Z,0.00
2019-03-01T22:54:39.430Z,0.00
2019-03-01T22:55:39.425Z,0.00
2019-03-01T22:56:39.408Z,0.00
2019-03-01T22:57:39.404Z,0.00
2019-03-01T22:58:39.412Z,0.00
2019-03-01T22:59:39.403Z,0.00
2019-03-01T23:00:39.369Z,0.00
2019-03-01T23:01:39.354Z,0.00
2019-03-01T23:02:40.357Z,0.00
2019-03-01T23:03:39.329Z,0.00
2019-03-01T23:04:39.327Z,0.00
2019-03-01T23:05:40.186Z,0.00
2019-03-01T23:06:39.299Z,0.00
2019-03-01T23:07:39.286Z,0.00
2019-03-01T23:08:39.315Z,0.00
2019-03-01T23:09:42.553Z,0.00
2019-03-01T23:10:40.252Z,0.00
2019-03-01T23:11:39.239Z,0.00
2019-03-01T23:12:40.605Z,0.00
2019-03-01T23:13:39.228Z,0.00
2019-03-01T23:14:39.232Z,0.00
2019-03-01T23:15:39.483Z,0.00
2019-03-01T23:16:39.202Z,0.00
2019-03-01T23:17:39.173Z,0.00
2019-03-01T23:18:40.502Z,0.00
2019-03-01T23:19:39.308Z,0.00
2019-03-01T23:20:39.152Z,0.00
2019-03-01T23:21:39.161Z,0.00
2019-03-01T23:22:39.138Z,0.00
2019-03-01T23:23:39.111Z,0.00
2019-03-01T23:24:39.094Z,0.00
2019-03-01T23:25:39.084Z,0.00
2019-03-01T23:26:39.079Z,0.00
2019-03-01T23:27:39.087Z,0.00
2019-03-01T23:28:40.815Z,0.00
2019-03-01T23:29:39.084Z,0.00
2019-03-01T23:30:39.035Z,0.00
2019-03-01T23:31:39.687Z,0.00
2019-03-01T23:32:39.053Z,0.00
2019-03-01T23:33:39.009Z,0.00
2019-03-01T23:34:42.584Z,0.00
2019-03-01T23:35:39.094Z,0.00
2019-03-01T23:36:39.111Z,0.00
2019-03-01T23:37:39.866Z,0.00
2019-03-01T23:38:39.018Z,0.00
2019-03-01T23:39:39.077Z,0.00
2019-03-01T23:40:38.992Z,0.00
2019-03-01T23:41:43.511Z,0.00
2019-03-01T23:42:38.935Z,0.00
2019-03-01T23:43:38.925Z,0.00
2019-03-01T23:44:41.533Z,0.00
2019-03-01T23:45:38.864Z,0.00
2019-03-01T23:46:38.861Z,0.00
2019-03-01T23:47:39.532Z,0.00
2019-03-01T23:48:38.840Z,0.00
2019-03-01T23:49:38.866Z,0.00
2019-03-01T23:50:38.842Z,0.00
2019-03-01T23:51:38.834Z,0.00
2019-03-01T23:52:38.786Z,0.00
2019-03-01T23:53:38.809Z,0.00
2019-03-01T23:54:40.707Z,0.00
2019-03-01T23:55:39.799Z,0.00
2019-03-01T23:56:38.791Z,0.00
2019-03-01T23:57:41.100Z,0.00
2019-03-01T23:58:38.791Z,0.00
2019-03-01T23:59:38.715Z,0.00
